Time;durP1;ratioP1;P1;durP2;ratioP2;P2;SDS_P1;SDS_P2;PMS_P1;PMS_P2;Temp;Humidity;BMP_temperature;BMP_pressure;BME280_temperature;BME280_humidity;BME280_pressure;Samples;Min_cycle;Max_cycle;Signal;HPM_P1;HPM_P2
2022/09/08 00:02:06;;;;;;;4.87;3.20;;;17.50;99.90;;;;;;5040312;28;20452;-78
2022/09/08 00:04:33;;;;;;;4.43;3.03;;;17.50;99.90;;;;;;5051194;28;20457;-77
2022/09/08 00:07:00;;;;;;;4.13;3.13;;;17.50;99.90;;;;;;5037584;28;20466;-78
2022/09/08 00:09:30;;;;;;;2.97;2.77;;;17.50;99.90;;;;;;5034111;28;20980;-78
2022/09/08 00:11:57;;;;;;;6.10;2.90;;;17.50;99.90;;;;;;5043396;28;20434;-78
2022/09/08 00:14:24;;;;;;;4.47;2.97;;;17.50;99.90;;;;;;5043529;28;20455;-78
2022/09/08 00:16:51;;;;;;;4.27;3.00;;;17.50;99.90;;;;;;5033365;28;20504;-78
2022/09/08 00:19:18;;;;;;;4.80;2.50;;;17.50;99.90;;;;;;5040849;28;20621;-78
2022/09/08 00:21:44;;;;;;;3.10;2.47;;;17.50;99.90;;;;;;5050584;28;20454;-77
2022/09/08 00:24:11;;;;;;;4.60;2.13;;;17.50;99.90;;;;;;5043606;28;21060;-78
2022/09/08 00:26:39;;;;;;;3.03;2.83;;;17.60;99.90;;;;;;5033894;28;20950;-78
2022/09/08 00:29:05;;;;;;;2.60;2.40;;;17.60;99.90;;;;;;5040487;28;20473;-78
2022/09/08 00:31:32;;;;;;;2.67;2.43;;;17.50;99.90;;;;;;5034286;28;20451;-77
2022/09/08 00:33:59;;;;;;;4.90;2.57;;;17.50;99.90;;;;;;5033647;28;20545;-78
2022/09/08 00:36:25;;;;;;;2.97;2.60;;;17.50;99.90;;;;;;5041741;28;20449;-78
2022/09/08 00:38:55;;;;;;;3.20;2.90;;;17.50;99.90;;;;;;5039513;28;20560;-78
2022/09/08 00:41:23;;;;;;;7.03;3.20;;;17.50;99.90;;;;;;5050783;28;20420;-78
2022/09/08 00:43:58;;;;;;;3.77;2.83;;;17.30;99.90;;;;;;5044423;28;20503;-77
2022/09/08 00:46:28;;;;;;;4.70;3.17;;;17.30;99.90;;;;;;5049565;28;20453;-77
2022/09/08 00:49:02;;;;;;;4.57;3.40;;;17.20;99.90;;;;;;5047313;28;20489;-78
2022/09/08 00:51:30;;;;;;;4.83;2.60;;;17.20;99.90;;;;;;5033741;28;20757;-78
2022/09/08 00:53:58;;;;;;;2.80;2.43;;;17.10;99.90;;;;;;5047403;28;20452;-78
2022/09/08 00:56:27;;;;;;;5.87;3.23;;;17.20;99.90;;;;;;5051316;28;20930;-78
2022/09/08 00:58:56;;;;;;;4.80;2.83;;;17.20;99.90;;;;;;5037250;28;20467;-78
2022/09/08 01:01:22;;;;;;;5.27;4.13;;;17.10;99.90;;;;;;5043593;28;20816;-78
2022/09/08 01:03:49;;;;;;;7.17;5.17;;;17.00;99.90;;;;;;5046805;28;20485;-78
2022/09/08 01:14:51;;;;;;;4.70;4.30;;;16.60;99.90;;;;;;5044283;28;20500;-78
2022/09/08 01:17:20;;;;;;;4.30;3.50;;;16.60;99.90;;;;;;5040847;28;20453;-77
2022/09/08 01:19:48;;;;;;;3.70;3.40;;;16.60;99.90;;;;;;5044628;28;20458;-78
2022/09/08 01:22:28;;;;;;;4.83;3.37;;;16.50;99.90;;;;;;5033898;28;20461;-78
2022/09/08 01:25:05;;;;;;;6.43;3.30;;;16.60;99.90;;;;;;5042609;28;20498;-78
2022/09/08 01:27:36;;;;;;;6.43;3.30;;;16.60;99.90;;;;;;5049051;28;20531;-78
2022/09/08 01:30:06;;;;;;;8.87;3.90;;;16.60;99.90;;;;;;5035557;28;20496;-78
2022/09/08 01:32:36;;;;;;;4.37;3.67;;;16.60;99.90;;;;;;5047466;28;20481;-78
2022/09/08 01:35:03;;;;;;;3.50;3.20;;;16.60;99.90;;;;;;5050595;28;20515;-78
2022/09/08 01:37:30;;;;;;;9.40;3.30;;;16.60;99.90;;;;;;5032928;28;20454;-78
2022/09/08 01:39:57;;;;;;;4.63;3.53;;;16.60;99.90;;;;;;5035555;28;20776;-78
2022/09/08 01:42:24;;;;;;;4.70;3.50;;;16.60;99.90;;;;;;5050750;28;20449;-78
2022/09/08 01:44:52;;;;;;;8.93;3.30;;;16.60;99.90;;;;;;5041533;28;20458;-78
2022/09/08 01:47:18;;;;;;;4.00;3.30;;;16.70;99.90;;;;;;5032017;28;20881;-78
2022/09/08 01:49:45;;;;;;;3.93;3.60;;;16.70;99.90;;;;;;5039529;28;20425;-78
2022/09/08 01:52:12;;;;;;;4.13;3.70;;;16.70;99.90;;;;;;5031694;28;20422;-78
2022/09/08 01:54:39;;;;;;;4.60;3.27;;;16.70;99.90;;;;;;5038621;28;20449;-78
2022/09/08 01:57:05;;;;;;;3.97;3.57;;;16.70;99.90;;;;;;5045879;28;20461;-78
2022/09/08 01:59:32;;;;;;;7.20;3.23;;;16.80;99.90;;;;;;5031900;28;20511;-78
2022/09/08 02:02:00;;;;;;;3.20;3.00;;;16.80;99.90;;;;;;5033322;28;20452;-78
2022/09/08 02:04:26;;;;;;;5.93;3.70;;;16.80;99.90;;;;;;5032806;28;20477;-78
2022/09/08 02:06:53;;;;;;;3.90;3.60;;;16.80;99.90;;;;;;5039794;28;20460;-77
2022/09/08 02:09:20;;;;;;;4.60;3.87;;;16.90;99.90;;;;;;5042158;28;20480;-78
2022/09/08 02:11:48;;;;;;;5.30;3.83;;;16.90;99.90;;;;;;5040523;28;20424;-77
2022/09/08 02:14:15;;;;;;;8.00;4.30;;;17.00;99.90;;;;;;5032693;28;20988;-77
2022/09/08 02:16:43;;;;;;;4.97;4.50;;;17.00;99.90;;;;;;5031346;28;20456;-77
2022/09/08 02:19:11;;;;;;;8.20;4.90;;;17.10;99.90;;;;;;5038756;28;20492;-77
2022/09/08 02:21:38;;;;;;;9.13;4.83;;;17.10;99.90;;;;;;5041157;28;20854;-77
2022/09/08 02:24:05;;;;;;;7.23;5.27;;;17.20;99.90;;;;;;5032742;28;20437;-77
2022/09/08 02:26:32;;;;;;;10.73;5.80;;;17.20;99.90;;;;;;5029907;28;20450;-77
2022/09/08 02:28:59;;;;;;;7.30;4.90;;;17.20;99.90;;;;;;5043093;28;20453;-77
2022/09/08 02:31:27;;;;;;;7.77;5.27;;;17.20;99.90;;;;;;5049690;28;20461;-77
2022/09/08 02:33:54;;;;;;;7.30;5.20;;;17.20;99.90;;;;;;5050610;28;20477;-77
2022/09/08 02:36:22;;;;;;;6.77;5.70;;;17.20;99.90;;;;;;5037441;28;20429;-76
2022/09/08 02:38:50;;;;;;;12.03;5.37;;;17.20;99.90;;;;;;5032930;28;20506;-76
2022/09/08 02:41:17;;;;;;;8.93;5.97;;;17.20;99.90;;;;;;5036875;28;20454;-76
2022/09/08 02:43:43;;;;;;;11.30;5.93;;;17.30;99.90;;;;;;5031591;28;20891;-76
2022/09/08 02:46:11;;;;;;;8.83;5.20;;;17.30;99.90;;;;;;5031191;28;20487;-76
2022/09/08 02:48:38;;;;;;;6.10;5.37;;;17.40;99.90;;;;;;5032353;28;20909;-76
2022/09/08 02:51:07;;;;;;;7.27;6.13;;;17.40;99.90;;;;;;5031334;28;20439;-76
2022/09/08 02:53:36;;;;;;;12.27;8.00;;;17.40;99.90;;;;;;5031342;28;20517;-76
2022/09/08 02:56:04;;;;;;;12.37;7.07;;;17.40;99.90;;;;;;5040538;28;20896;-77
2022/09/08 02:58:31;;;;;;;8.23;6.07;;;17.40;99.90;;;;;;5045444;28;20515;-77
2022/09/08 03:00:58;;;;;;;11.00;7.40;;;17.40;99.90;;;;;;5030960;28;20868;-77
2022/09/08 03:03:25;;;;;;;8.10;6.10;;;17.50;99.90;;;;;;5031370;28;20544;-77
2022/09/08 03:05:52;;;;;;;9.77;6.37;;;17.50;99.90;;;;;;5030834;28;20497;-77
2022/09/08 03:08:20;;;;;;;9.13;5.10;;;17.50;99.90;;;;;;5038208;28;20531;-77
2022/09/08 03:10:49;;;;;;;12.33;5.07;;;17.50;99.90;;;;;;5054668;28;20808;-77
2022/09/08 03:13:16;;;;;;;4.43;4.03;;;17.40;99.90;;;;;;5035716;28;20819;-77
2022/09/08 03:15:43;;;;;;;5.67;4.40;;;17.40;99.90;;;;;;5035658;28;20483;-77
2022/09/08 03:18:10;;;;;;;5.90;4.03;;;17.30;99.90;;;;;;5034089;28;20540;-77
2022/09/08 03:20:39;;;;;;;7.37;4.03;;;17.30;99.90;;;;;;5034318;28;20512;-77
2022/09/08 03:23:07;;;;;;;5.70;3.83;;;17.30;99.90;;;;;;5051519;28;20498;-77
2022/09/08 03:25:36;;;;;;;5.93;4.10;;;17.20;99.90;;;;;;5052152;28;20480;-77
2022/09/08 03:28:05;;;;;;;9.10;5.33;;;17.10;99.90;;;;;;5052823;28;20533;-77
2022/09/08 03:30:32;;;;;;;14.40;6.97;;;17.10;99.90;;;;;;5034716;28;20458;-77
2022/09/08 03:32:59;;;;;;;8.37;7.57;;;17.10;99.90;;;;;;5049735;28;20451;-77
2022/09/08 03:35:25;;;;;;;10.67;7.90;;;17.00;99.90;;;;;;5047001;28;20866;-77
2022/09/08 03:37:54;;;;;;;12.63;8.20;;;17.00;99.90;;;;;;5040897;28;20924;-77
2022/09/08 03:40:21;;;;;;;13.63;7.87;;;17.00;99.90;;;;;;5053593;28;20458;-77
2022/09/08 03:42:47;;;;;;;10.47;7.43;;;17.00;99.90;;;;;;5039603;28;20821;-77
2022/09/08 03:45:17;;;;;;;15.27;7.93;;;17.00;99.90;;;;;;5035237;28;20454;-76
2022/09/08 03:47:44;;;;;;;12.07;7.20;;;17.00;99.90;;;;;;5037919;28;20466;-76
2022/09/08 03:50:12;;;;;;;12.37;7.80;;;16.90;99.90;;;;;;5053367;28;20435;-76
2022/09/08 03:52:38;;;;;;;14.50;6.77;;;16.90;99.90;;;;;;5041151;28;20470;-76
2022/09/08 03:55:06;;;;;;;9.00;6.67;;;16.80;99.90;;;;;;5034328;28;20454;-76
2022/09/08 03:57:33;;;;;;;11.40;6.70;;;16.80;99.90;;;;;;5034290;28;20483;-76
2022/09/08 04:00:01;;;;;;;10.20;5.73;;;16.90;99.90;;;;;;5034217;28;20528;-76
2022/09/08 04:02:31;;;;;;;5.50;3.87;;;16.90;99.90;;;;;;5035203;28;21253;-77
2022/09/08 04:04:58;;;;;;;3.93;2.80;;;16.90;99.90;;;;;;5047696;28;20836;-77
2022/09/08 04:07:27;;;;;;;5.30;2.80;;;16.90;99.90;;;;;;5052642;28;20453;-77
2022/09/08 04:09:55;;;;;;;2.90;2.70;;;16.80;99.90;;;;;;5052831;28;20428;-77
2022/09/08 04:12:22;;;;;;;3.83;2.50;;;16.70;99.90;;;;;;5036470;28;20545;-77
2022/09/08 04:14:49;;;;;;;6.10;3.23;;;16.70;99.90;;;;;;5033779;28;21080;-77
2022/09/08 04:17:16;;;;;;;3.83;2.70;;;16.60;99.90;;;;;;5032875;28;20951;-77
2022/09/08 04:19:44;;;;;;;4.10;3.20;;;16.60;99.90;;;;;;5033286;28;20489;-77
2022/09/08 04:22:11;;;;;;;3.70;2.80;;;16.70;99.90;;;;;;5033880;28;20467;-77
2022/09/08 04:24:38;;;;;;;3.90;2.57;;;16.70;99.90;;;;;;5033571;28;20439;-77
2022/09/08 04:27:05;;;;;;;4.60;3.00;;;16.70;99.90;;;;;;5039497;28;21007;-77
2022/09/08 04:29:32;;;;;;;4.77;3.00;;;16.70;99.90;;;;;;5036129;28;20451;-77
2022/09/08 04:31:58;;;;;;;3.20;2.97;;;16.70;99.90;;;;;;5033428;28;20464;-77
2022/09/08 04:34:25;;;;;;;7.33;3.53;;;16.70;99.90;;;;;;5052299;28;20473;-77
2022/09/08 04:36:53;;;;;;;6.70;4.30;;;16.60;99.90;;;;;;5039909;28;20463;-78
2022/09/08 04:39:20;;;;;;;6.57;4.30;;;16.60;99.90;;;;;;5040583;28;20481;-77
2022/09/08 04:41:47;;;;;;;7.70;5.50;;;16.60;99.90;;;;;;5037335;28;20904;-77
2022/09/08 04:44:14;;;;;;;8.83;5.83;;;16.60;99.90;;;;;;5032032;28;20507;-77
2022/09/08 04:46:41;;;;;;;8.07;5.77;;;16.60;99.90;;;;;;5032626;28;20433;-77
2022/09/08 04:49:08;;;;;;;9.37;5.67;;;16.60;99.90;;;;;;5038866;28;20864;-74
2022/09/08 04:51:35;;;;;;;9.23;6.43;;;16.60;99.90;;;;;;5051234;28;20924;-74
2022/09/08 04:54:04;;;;;;;13.27;6.73;;;16.60;99.90;;;;;;5051751;28;20834;-74
2022/09/08 04:56:31;;;;;;;13.83;6.37;;;16.60;99.90;;;;;;5042916;28;20495;-74
2022/09/08 04:58:59;;;;;;;9.03;5.53;;;16.60;99.90;;;;;;5037209;28;20505;-74
2022/09/08 05:01:28;;;;;;;8.60;5.53;;;16.70;99.90;;;;;;5044277;28;20537;-74
2022/09/08 05:03:57;;;;;;;9.57;5.43;;;16.70;99.90;;;;;;5033808;28;20473;-74
2022/09/08 05:06:24;;;;;;;7.00;5.00;;;16.80;99.90;;;;;;5039674;28;20455;-74
2022/09/08 05:08:54;;;;;;;7.60;5.30;;;17.00;99.90;;;;;;5040703;28;20448;-75
2022/09/08 05:11:23;;;;;;;7.60;5.20;;;17.10;99.90;;;;;;5049829;28;20458;-74
2022/09/08 05:13:50;;;;;;;7.60;5.60;;;17.20;99.90;;;;;;5031497;28;20501;-74
2022/09/08 05:16:18;;;;;;;7.77;5.90;;;17.20;99.90;;;;;;5036257;28;20440;-74
2022/09/08 05:18:48;;;;;;;6.57;5.30;;;17.10;99.90;;;;;;5031617;28;20517;-75
2022/09/08 05:21:15;;;;;;;11.50;5.17;;;17.10;99.90;;;;;;5031985;28;20462;-74
2022/09/08 05:23:41;;;;;;;9.43;6.37;;;17.00;99.90;;;;;;5041278;28;20445;-74
2022/09/08 05:26:11;;;;;;;7.20;5.07;;;17.10;99.90;;;;;;5049213;28;20424;-75
2022/09/08 05:28:40;;;;;;;7.47;5.43;;;17.10;99.90;;;;;;5042550;28;20912;-75
2022/09/08 05:31:08;;;;;;;10.00;6.60;;;17.20;99.90;;;;;;5042668;28;20479;-75
2022/09/08 05:33:35;;;;;;;7.27;5.90;;;17.30;99.90;;;;;;5050935;28;20509;-74
2022/09/08 05:36:08;;;;;;;6.50;4.53;;;17.20;99.90;;;;;;5043534;28;20433;-75
2022/09/08 05:38:36;;;;;;;8.00;4.87;;;17.30;99.90;;;;;;5031395;28;20428;-75
2022/09/08 05:41:03;;;;;;;7.60;5.40;;;17.30;99.90;;;;;;5035943;28;20427;-75
2022/09/08 05:43:29;;;;;;;6.50;4.50;;;17.30;99.90;;;;;;5051227;28;20452;-75
2022/09/08 05:45:57;;;;;;;8.10;4.53;;;17.20;99.90;;;;;;5047429;28;20428;-74
2022/09/08 05:48:24;;;;;;;8.83;4.60;;;17.20;99.90;;;;;;5032999;28;20515;-74
2022/09/08 05:50:51;;;;;;;7.00;4.30;;;17.30;99.90;;;;;;5038217;28;20456;-74
2022/09/08 05:53:17;;;;;;;4.80;4.30;;;17.30;99.90;;;;;;5032114;28;20506;-75
2022/09/08 05:55:54;;;;;;;4.43;3.60;;;17.30;99.90;;;;;;5035273;28;20511;-75
2022/09/08 05:58:21;;;;;;;5.30;3.97;;;17.20;99.90;;;;;;5050711;28;20509;-75
2022/09/08 06:00:54;;;;;;;7.17;3.77;;;17.30;99.90;;;;;;5046069;28;20467;-75
2022/09/08 06:03:22;;;;;;;3.77;3.47;;;17.40;99.90;;;;;;5050863;28;20527;-74
2022/09/08 06:05:49;;;;;;;6.40;4.43;;;17.40;99.90;;;;;;5032902;28;21012;-74
2022/09/08 06:08:15;;;;;;;8.80;4.53;;;17.40;99.90;;;;;;5044346;28;20461;-74
2022/09/08 06:10:42;;;;;;;4.60;3.83;;;17.50;99.90;;;;;;5050213;28;20453;-74
2022/09/08 06:13:08;;;;;;;5.73;3.90;;;17.40;99.90;;;;;;5049266;28;20473;-74
2022/09/08 06:15:35;;;;;;;4.60;4.20;;;17.50;99.90;;;;;;5050440;28;20457;-73
2022/09/08 06:18:02;;;;;;;3.57;3.27;;;17.60;99.90;;;;;;5050225;28;20424;-73
2022/09/08 06:20:30;;;;;;;4.60;3.50;;;17.60;99.90;;;;;;5051046;28;20492;-73
2022/09/08 06:22:56;;;;;;;4.60;3.63;;;17.70;99.90;;;;;;5032236;28;20469;-74
2022/09/08 06:25:23;;;;;;;5.33;3.43;;;17.70;99.90;;;;;;5031511;28;20512;-74
2022/09/08 06:27:56;;;;;;;5.33;3.57;;;17.70;99.90;;;;;;5032815;28;20970;-74
2022/09/08 06:30:22;;;;;;;8.03;4.50;;;17.70;99.90;;;;;;5040374;28;20474;-74
2022/09/08 06:32:55;;;;;;;5.53;3.90;;;17.70;99.90;;;;;;5031511;28;20528;-73
2022/09/08 06:35:27;;;;;;;8.10;3.70;;;17.70;99.90;;;;;;5033890;28;20461;-73
2022/09/08 06:38:00;;;;;;;4.80;3.67;;;17.70;99.90;;;;;;5042616;28;20460;-73
2022/09/08 06:40:30;;;;;;;4.40;4.00;;;17.70;99.90;;;;;;5043526;28;20452;-73
2022/09/08 06:43:01;;;;;;;4.17;3.77;;;17.70;99.90;;;;;;5045942;28;20470;-73
2022/09/08 06:45:31;;;;;;;7.43;3.73;;;17.70;99.90;;;;;;5035160;28;20425;-73
2022/09/08 06:48:07;;;;;;;4.53;3.50;;;17.50;99.90;;;;;;5042040;28;20850;-72
2022/09/08 06:50:38;;;;;;;5.13;3.40;;;17.50;99.90;;;;;;5048265;28;20954;-72
2022/09/08 06:53:16;;;;;;;3.80;3.30;;;17.50;99.90;;;;;;5041312;28;20440;-72
2022/09/08 06:55:52;;;;;;;10.40;3.47;;;17.40;99.90;;;;;;5035285;28;20939;-72
2022/09/08 06:58:28;;;;;;;3.10;2.80;;;17.30;99.90;;;;;;5035104;28;20431;-72
2022/09/08 07:01:00;;;;;;;3.10;2.80;;;17.20;99.90;;;;;;5035129;28;20456;-72
2022/09/08 07:03:45;;;;;;;7.80;3.20;;;17.20;99.90;;;;;;5053147;28;20501;-72
2022/09/08 07:06:13;;;;;;;3.63;3.33;;;17.00;99.90;;;;;;5045352;28;20436;-72
2022/09/08 07:09:02;;;;;;;3.57;3.20;;;17.00;99.90;;;;;;5038121;28;20468;-72
2022/09/08 07:11:47;;;;;;;3.70;3.40;;;16.90;99.90;;;;;;5042056;28;20461;-72
2022/09/08 07:14:40;;;;;;;4.73;3.50;;;16.90;99.90;;;;;;5041311;28;20484;-72
2022/09/08 07:17:13;;;;;;;5.20;3.40;;;16.80;99.90;;;;;;5034412;28;20504;-72
2022/09/08 07:19:49;;;;;;;3.60;3.30;;;16.70;99.90;;;;;;5034759;28;20481;-72
2022/09/08 07:22:24;;;;;;;5.53;4.30;;;16.70;99.90;;;;;;5034967;28;20461;-73
2022/09/08 07:24:54;;;;;;;5.57;3.93;;;16.60;99.90;;;;;;5046912;28;20449;-72
2022/09/08 07:27:21;;;;;;;4.97;4.10;;;16.60;99.90;;;;;;5051475;28;20510;-72
2022/09/08 07:29:51;;;;;;;5.77;4.10;;;16.60;99.90;;;;;;5033692;28;20442;-71
2022/09/08 07:32:22;;;;;;;6.47;4.87;;;16.60;99.90;;;;;;5045338;28;20478;-71
2022/09/08 07:34:53;;;;;;;4.73;4.20;;;16.60;99.90;;;;;;5034945;28;20480;-73
2022/09/08 07:37:24;;;;;;;5.47;4.50;;;16.60;99.90;;;;;;5036880;28;20450;-72
2022/09/08 07:40:00;;;;;;;5.83;4.63;;;16.70;99.90;;;;;;5033344;28;21024;-72
2022/09/08 07:42:27;;;;;;;10.43;4.83;;;16.70;99.90;;;;;;5033904;28;20478;-72
2022/09/08 07:44:58;;;;;;;4.70;4.30;;;16.70;99.90;;;;;;5040049;28;20458;-72
2022/09/08 07:47:50;;;;;;;6.03;4.60;;;16.70;99.90;;;;;;5033558;28;20533;-72
2022/09/08 07:50:53;;;;;;;5.47;4.73;;;16.70;99.90;;;;;;5033914;28;20457;-72
2022/09/08 07:53:19;;;;;;;7.20;4.77;;;16.60;99.90;;;;;;5031944;28;20458;-71
2022/09/08 07:55:47;;;;;;;11.23;5.37;;;16.60;99.90;;;;;;5034188;28;20504;-72
2022/09/08 07:58:18;;;;;;;6.20;4.70;;;16.70;99.90;;;;;;5035075;28;21036;-72
2022/09/08 08:00:50;;;;;;;6.93;4.50;;;16.70;99.90;;;;;;5043431;28;20486;-72
2022/09/08 08:03:30;;;;;;;5.83;4.60;;;16.70;99.90;;;;;;5040389;28;20486;-72
2022/09/08 08:06:02;;;;;;;4.80;4.40;;;16.70;99.90;;;;;;5052731;28;20851;-71
2022/09/08 08:08:39;;;;;;;9.77;4.83;;;16.60;99.90;;;;;;5040904;28;20516;-72
2022/09/08 08:11:16;;;;;;;4.80;3.60;;;16.60;99.90;;;;;;5045370;28;20516;-72
2022/09/08 08:14:02;;;;;;;6.03;3.10;;;16.50;99.90;;;;;;5033866;28;20569;-72
2022/09/08 08:16:41;;;;;;;3.63;3.33;;;16.40;99.90;;;;;;5033572;28;20504;-72
2022/09/08 08:19:19;;;;;;;4.00;2.87;;;16.40;99.90;;;;;;5032909;28;20950;-72
2022/09/08 08:21:53;;;;;;;2.97;2.77;;;16.40;99.90;;;;;;5033194;28;20450;-72
2022/09/08 08:24:31;;;;;;;2.10;1.90;;;16.50;99.90;;;;;;5046686;28;20469;-73
2022/09/08 08:27:06;;;;;;;1.80;1.70;;;16.50;99.90;;;;;;5040516;28;20524;-73
2022/09/08 08:29:50;;;;;;;1.93;1.83;;;16.50;99.90;;;;;;5045481;28;20502;-72
2022/09/08 08:32:21;;;;;;;2.00;1.80;;;16.60;99.90;;;;;;5036884;28;20459;-72
2022/09/08 08:34:52;;;;;;;2.40;2.20;;;16.60;99.90;;;;;;5034161;28;20451;-72
2022/09/08 08:37:22;;;;;;;2.00;1.90;;;16.50;99.90;;;;;;5034460;28;20453;-72
2022/09/08 08:39:53;;;;;;;2.57;1.87;;;16.50;99.90;;;;;;5042111;28;20830;-72
2022/09/08 08:42:33;;;;;;;2.10;2.00;;;16.60;99.90;;;;;;5052530;28;20449;-72
2022/09/08 08:45:22;;;;;;;2.37;2.20;;;16.70;99.90;;;;;;5051633;28;20457;-72
2022/09/08 08:48:18;;;;;;;2.10;1.97;;;16.80;99.90;;;;;;5046567;28;21007;-72
2022/09/08 08:50:56;;;;;;;2.97;2.20;;;16.90;99.90;;;;;;5033991;28;20511;-72
2022/09/08 08:53:52;;;;;;;2.20;2.10;;;17.00;99.90;;;;;;5050691;28;20458;-72
2022/09/08 08:56:26;;;;;;;1.93;1.83;;;17.10;99.90;;;;;;5043761;28;20428;-72
2022/09/08 08:59:32;;;;;;;3.30;2.10;;;17.30;99.90;;;;;;5048864;28;21387;-72
2022/09/08 09:02:13;;;;;;;2.07;1.80;;;17.50;99.90;;;;;;5012771;28;20447;-72
2022/09/08 09:05:03;;;;;;;2.27;1.90;;;17.50;99.90;;;;;;5039377;28;20811;-72
2022/09/08 09:08:08;;;;;;;2.10;1.90;;;17.70;99.90;;;;;;5035528;28;20509;-72
2022/09/08 09:10:49;;;;;;;2.23;2.00;;;17.80;99.90;;;;;;5042831;28;20954;-72
2022/09/08 09:13:43;;;;;;;2.30;2.10;;;18.00;99.90;;;;;;5033930;28;20536;-73
2022/09/08 09:16:26;;;;;;;2.67;2.10;;;18.30;99.90;;;;;;5047691;28;20449;-73
2022/09/08 09:19:28;;;;;;;5.87;2.10;;;18.50;99.90;;;;;;5034769;28;20497;-73
2022/09/08 09:22:06;;;;;;;3.10;1.90;;;18.90;99.90;;;;;;5051528;28;20903;-73
2022/09/08 09:24:39;;;;;;;2.27;1.70;;;19.20;99.90;;;;;;5051583;28;20878;-73
2022/09/08 09:27:17;;;;;;;2.03;1.83;;;19.70;99.90;;;;;;5051217;28;20457;-73
2022/09/08 09:29:44;;;;;;;2.00;1.80;;;20.00;99.90;;;;;;5045458;28;20419;-72
2022/09/08 09:32:43;;;;;;;3.00;2.07;;;19.90;99.90;;;;;;5041056;28;20482;-73
2022/09/08 09:35:22;;;;;;;4.43;1.73;;;19.70;99.90;;;;;;5042807;28;21031;-73
2022/09/08 09:38:19;;;;;;;2.03;1.90;;;19.60;99.90;;;;;;5043072;28;20423;-73
2022/09/08 09:41:06;;;;;;;3.10;1.80;;;19.20;99.90;;;;;;5041739;28;20464;-73
2022/09/08 09:43:49;;;;;;;1.80;1.70;;;19.10;99.90;;;;;;5032034;28;20448;-73
2022/09/08 09:46:31;;;;;;;2.03;1.70;;;19.20;99.90;;;;;;5031877;28;20495;-73
2022/09/08 09:49:27;;;;;;;2.53;1.87;;;19.40;99.90;;;;;;5035477;28;20432;-73
2022/09/08 09:52:08;;;;;;;2.43;1.77;;;19.60;99.90;;;;;;5045430;28;20421;-73
2022/09/08 09:54:52;;;;;;;1.93;1.83;;;19.80;99.90;;;;;;5031920;28;20486;-73
2022/09/08 09:58:05;;;;;;;3.40;2.00;;;19.60;99.90;;;;;;5031486;28;20458;-75
2022/09/08 10:00:42;;;;;;;2.90;2.07;;;19.30;99.90;;;;;;4985074;28;20499;-74
2022/09/08 10:03:42;;;;;;;2.47;2.20;;;19.30;99.90;;;;;;4988465;28;20459;-74
2022/09/08 10:06:23;;;;;;;3.97;2.13;;;19.20;99.90;;;;;;5013677;28;20433;-74
2022/09/08 10:09:23;;;;;;;2.30;2.10;;;19.10;99.90;;;;;;5038345;28;20432;-74
2022/09/08 10:12:22;;;;;;;2.47;1.93;;;19.00;99.90;;;;;;5031376;28;20500;-74
2022/09/08 10:15:35;;;;;;;1.97;1.70;;;19.10;99.90;;;;;;5040107;28;20428;-73
2022/09/08 10:18:27;;;;;;;2.00;1.90;;;19.30;99.90;;;;;;5031127;28;20466;-74
2022/09/08 10:21:27;;;;;;;1.90;1.80;;;19.60;99.90;;;;;;5030729;28;20507;-74
2022/09/08 10:24:18;;;;;;;1.90;1.80;;;20.10;99.90;;;;;;5046274;28;20982;-74
2022/09/08 10:27:08;;;;;;;3.90;1.90;;;20.00;99.90;;;;;;5049908;28;20923;-74
2022/09/08 10:30:03;;;;;;;4.23;1.97;;;19.80;99.90;;;;;;5043281;28;20487;-75
2022/09/08 10:32:52;;;;;;;1.90;1.70;;;19.70;99.90;;;;;;5044567;28;20861;-75
2022/09/08 10:35:37;;;;;;;1.80;1.70;;;19.80;99.90;;;;;;5043667;28;20481;-75
2022/09/08 10:38:46;;;;;;;1.70;1.60;;;20.30;99.90;;;;;;5031185;28;20463;-76
2022/09/08 10:41:50;;;;;;;2.10;1.80;;;20.70;99.90;;;;;;5038531;28;20831;-76
2022/09/08 10:44:39;;;;;;;1.73;1.60;;;21.10;99.90;;;;;;5031416;28;20471;-75
2022/09/08 10:47:38;;;;;;;1.60;1.50;;;21.00;99.90;;;;;;5042484;28;20429;-75
2022/09/08 10:50:17;;;;;;;1.97;1.27;;;21.30;99.90;;;;;;5023601;28;20483;-75
2022/09/08 10:53:20;;;;;;;1.60;1.37;;;21.80;99.90;;;;;;5042407;28;20496;-75
2022/09/08 10:56:01;;;;;;;4.70;1.30;;;22.10;99.90;;;;;;5039492;28;20608;-74
2022/09/08 10:58:59;;;;;;;1.23;1.13;;;22.30;99.90;;;;;;5044301;28;20452;-74
2022/09/08 11:02:05;;;;;;;1.60;1.40;;;22.50;99.90;;;;;;5030383;28;21052;-74
2022/09/08 11:05:05;;;;;;;1.40;1.10;;;22.90;99.90;;;;;;5049591;28;20673;-73
2022/09/08 11:07:52;;;;;;;1.37;1.20;;;23.10;99.90;;;;;;5045407;28;20469;-74
2022/09/08 11:10:29;;;;;;;2.27;1.30;;;23.10;99.90;;;;;;5032220;28;20454;-74
2022/09/08 11:13:13;;;;;;;1.37;1.17;;;23.10;99.90;;;;;;5032963;28;20897;-73
2022/09/08 11:15:54;;;;;;;1.40;0.90;;;23.20;99.90;;;;;;5029535;28;20445;-73
2022/09/08 11:18:27;;;;;;;3.00;1.27;;;23.10;99.90;;;;;;5050110;28;20662;-73
2022/09/08 11:20:58;;;;;;;2.37;1.20;;;23.60;99.90;;;;;;5045206;28;20477;-73
2022/09/08 11:23:48;;;;;;;2.60;1.20;;;23.80;99.90;;;;;;5040688;28;20568;-73
2022/09/08 11:26:41;;;;;;;3.40;1.10;;;23.40;99.90;;;;;;5043885;28;20564;-74
2022/09/08 11:29:13;;;;;;;1.77;1.27;;;22.80;99.90;;;;;;5045723;28;20961;-74
2022/09/08 11:31:49;;;;;;;1.30;1.20;;;22.50;99.90;;;;;;5048333;28;20453;-74
2022/09/08 11:34:36;;;;;;;1.77;1.20;;;22.50;99.90;;;;;;5033975;28;20473;-73
2022/09/08 11:37:28;;;;;;;1.90;1.23;;;22.90;99.90;;;;;;5037675;28;20454;-74
2022/09/08 11:40:18;;;;;;;1.50;1.40;;;22.70;99.90;;;;;;5014785;28;20831;-74
2022/09/08 11:43:01;;;;;;;3.80;1.20;;;22.90;99.90;;;;;;5034530;28;20466;-74
2022/09/08 11:45:46;;;;;;;2.73;1.20;;;23.20;99.90;;;;;;5034085;28;21910;-73
2022/09/08 11:48:37;;;;;;;1.80;1.20;;;23.00;99.90;;;;;;5033861;28;20445;-73
2022/09/08 11:51:21;;;;;;;3.03;1.10;;;22.60;99.90;;;;;;5037636;28;20519;-74
2022/09/08 11:54:04;;;;;;;1.63;1.00;;;23.10;99.90;;;;;;5050488;28;20465;-74
2022/09/08 11:56:49;;;;;;;3.27;1.20;;;23.60;99.90;;;;;;5049524;28;20503;-73
2022/09/08 11:59:28;;;;;;;2.13;1.00;;;23.90;99.90;;;;;;5052897;28;20488;-74
2022/09/08 12:02:11;;;;;;;1.87;0.87;;;23.80;99.90;;;;;;5043055;28;20489;-74
2022/09/08 12:04:52;;;;;;;3.00;1.10;;;23.70;99.90;;;;;;5051357;28;20457;-74
2022/09/08 12:08:11;;;;;;;1.50;1.30;;;23.90;99.90;;;;;;5039415;28;20930;-74
2022/09/08 12:10:57;;;;;;;2.60;1.00;;;24.20;99.90;;;;;;4991470;28;20984;-74
2022/09/08 12:13:31;;;;;;;4.60;1.10;;;24.40;99.90;;;;;;5043895;28;20495;-75
2022/09/08 12:16:32;;;;;;;1.57;1.00;;;24.30;99.90;;;;;;5051787;28;20449;-73
2022/09/08 12:19:12;;;;;;;2.10;0.90;;;24.10;99.90;;;;;;5039163;28;20949;-76
2022/09/08 12:21:51;;;;;;;3.20;1.17;;;24.00;99.90;;;;;;5041922;28;20257;-76
2022/09/08 12:24:36;;;;;;;1.50;0.90;;;24.30;99.90;;;;;;5051579;28;20473;-76
2022/09/08 12:27:15;;;;;;;2.03;0.90;;;24.60;99.90;;;;;;5043851;28;20457;-76
2022/09/08 12:30:04;;;;;;;2.93;1.00;;;24.80;99.90;;;;;;5036343;28;20450;-76
2022/09/08 12:33:05;;;;;;;1.63;1.00;;;25.10;99.90;;;;;;5036867;28;20466;-76
2022/09/08 12:35:35;;;;;;;1.30;0.80;;;24.70;99.90;;;;;;5035561;28;20464;-76
2022/09/08 12:38:29;;;;;;;1.50;0.90;;;24.40;99.90;;;;;;5050879;28;20456;-76
2022/09/08 12:41:29;;;;;;;2.30;1.07;;;23.70;99.90;;;;;;5051185;28;22086;-76
2022/09/08 12:44:06;;;;;;;3.20;1.00;;;23.50;99.90;;;;;;5041510;28;20478;-75
2022/09/08 12:46:54;;;;;;;2.03;1.10;;;23.80;99.90;;;;;;5033382;28;20453;-76
2022/09/08 12:49:31;;;;;;;1.97;1.03;;;23.40;99.90;;;;;;5046750;28;20796;-76
2022/09/08 12:52:02;;;;;;;2.33;1.40;;;23.20;99.90;;;;;;5049165;28;20445;-76
2022/09/08 12:54:41;;;;;;;1.90;1.00;;;23.60;99.90;;;;;;5046604;28;20483;-76
2022/09/08 12:57:26;;;;;;;1.57;1.03;;;24.10;99.90;;;;;;5049433;28;20453;-75
2022/09/08 13:00:01;;;;;;;1.90;1.10;;;24.10;99.90;;;;;;5031794;28;20511;-75
2022/09/08 13:02:45;;;;;;;1.30;0.90;;;24.30;99.90;;;;;;5037276;28;21067;-76
2022/09/08 13:05:30;;;;;;;2.50;1.17;;;24.20;99.90;;;;;;5031841;28;20516;-76
2022/09/08 13:08:10;;;;;;;1.27;1.00;;;24.40;99.90;;;;;;5038387;28;20458;-74
2022/09/08 13:10:40;;;;;;;1.10;0.80;;;24.00;99.90;;;;;;5032224;28;20462;-76
2022/09/08 13:13:32;;;;;;;1.10;0.90;;;23.80;99.90;;;;;;5036902;28;20470;-77
2022/09/08 13:16:12;;;;;;;2.90;1.00;;;24.10;99.90;;;;;;5031633;28;20454;-79
2022/09/08 13:18:44;;;;;;;1.23;0.90;;;24.20;99.90;;;;;;5037608;28;20507;-76
2022/09/08 13:21:14;;;;;;;2.00;1.13;;;24.50;99.90;;;;;;5049203;28;20481;-77
2022/09/08 13:23:51;;;;;;;3.90;1.13;;;24.50;99.90;;;;;;5051000;28;20526;-75
2022/09/08 13:26:49;;;;;;;1.10;0.90;;;25.00;99.90;;;;;;5035005;28;20457;-75
2022/09/08 13:29:29;;;;;;;1.50;0.90;;;24.80;99.90;;;;;;5040235;28;20544;-75
2022/09/08 13:32:08;;;;;;;3.50;1.10;;;24.10;99.90;;;;;;5045280;28;20234;-73
2022/09/08 13:34:50;;;;;;;3.00;1.20;;;23.70;99.90;;;;;;5031847;28;20869;-74
2022/09/08 13:37:37;;;;;;;1.40;0.90;;;23.70;99.90;;;;;;5031753;28;20499;-74